Time;durP1;ratioP1;P1;durP2;ratioP2;P2;SDS_P1;SDS_P2;PMS_P1;PMS_P2;Temp;Humidity;BMP_temperature;BMP_pressure;BME280_temperature;BME280_humidity;BME280_pressure;Samples;Min_cycle;Max_cycle;Signal;HPM_P1;HPM_P2
2022/01/05 00:01:18;;;;;;;0.30;0.30;;;4.00;99.90;;;;;;5115942;28;20451;-85
2022/01/05 00:03:45;;;;;;;0.30;0.20;;;4.00;99.90;;;;;;5115873;28;20447;-85
2022/01/05 00:06:11;;;;;;;0.30;0.20;;;4.00;99.90;;;;;;5115887;28;20443;-85
2022/01/05 00:08:39;;;;;;;0.30;0.30;;;4.10;99.90;;;;;;5115836;27;20451;-85
2022/01/05 00:11:06;;;;;;;0.30;0.30;;;4.00;99.90;;;;;;5115595;28;20450;-85
2022/01/05 00:13:33;;;;;;;0.30;0.20;;;4.10;99.90;;;;;;5115606;28;20477;-85
2022/01/05 00:16:00;;;;;;;0.30;0.30;;;4.10;99.90;;;;;;5115233;28;21016;-85
2022/01/05 00:18:27;;;;;;;0.30;0.30;;;4.10;99.90;;;;;;5115672;28;20450;-85
2022/01/05 00:20:53;;;;;;;0.30;0.30;;;4.10;99.90;;;;;;5115199;28;20427;-85
2022/01/05 00:23:20;;;;;;;0.30;0.30;;;4.10;99.90;;;;;;5115516;28;20462;-85
2022/01/05 00:25:48;;;;;;;0.30;0.20;;;4.10;99.90;;;;;;5115208;28;20435;-85
2022/01/05 00:28:15;;;;;;;0.30;0.20;;;4.10;99.90;;;;;;5115440;28;20454;-84
2022/01/05 00:30:42;;;;;;;0.30;0.20;;;4.10;99.90;;;;;;5115262;28;20450;-85
2022/01/05 00:33:08;;;;;;;0.30;0.30;;;4.10;99.90;;;;;;5115069;28;20490;-84
2022/01/05 00:35:35;;;;;;;0.30;0.30;;;4.10;99.90;;;;;;5115080;28;20953;-84
2022/01/05 00:38:02;;;;;;;0.30;0.20;;;4.10;99.90;;;;;;5115073;28;20527;-84
2022/01/05 00:40:29;;;;;;;0.30;0.20;;;4.00;99.90;;;;;;5115119;28;20451;-84
2022/01/05 00:42:57;;;;;;;0.30;0.30;;;4.00;99.90;;;;;;5116288;28;20455;-85
2022/01/05 00:45:23;;;;;;;0.30;0.30;;;4.00;99.90;;;;;;5114979;28;20439;-84
2022/01/05 00:47:50;;;;;;;0.30;0.20;;;4.10;99.90;;;;;;5114821;28;20446;-85
2022/01/05 00:50:17;;;;;;;0.30;0.30;;;4.10;99.90;;;;;;5114915;28;20454;-85
2022/01/05 00:52:44;;;;;;;0.30;0.30;;;4.00;99.90;;;;;;5114433;27;20482;-85
2022/01/05 00:55:10;;;;;;;0.30;0.30;;;4.10;99.90;;;;;;5114867;27;20455;-85
2022/01/05 00:57:37;;;;;;;0.30;0.30;;;4.00;99.90;;;;;;5114791;28;20450;-85
2022/01/05 01:00:07;;;;;;;0.30;0.20;;;4.00;99.90;;;;;;5114714;28;20811;-85
2022/01/05 01:02:34;;;;;;;0.30;0.20;;;4.00;99.90;;;;;;5114371;28;20466;-85
2022/01/05 01:05:00;;;;;;;0.30;0.30;;;3.90;99.90;;;;;;5114413;28;20447;-85
2022/01/05 01:07:27;;;;;;;0.30;0.20;;;4.00;99.90;;;;;;5114709;28;20447;-84
2022/01/05 01:09:54;;;;;;;0.30;0.20;;;4.00;99.90;;;;;;5114355;28;20439;-85
2022/01/05 01:12:20;;;;;;;0.30;0.30;;;4.00;99.90;;;;;;5114394;28;20490;-85
2022/01/05 01:14:47;;;;;;;0.30;0.20;;;4.00;99.90;;;;;;5114514;28;20443;-83
2022/01/05 01:17:15;;;;;;;0.30;0.20;;;4.00;99.90;;;;;;5113747;28;20482;-82
2022/01/05 01:19:42;;;;;;;0.30;0.30;;;4.00;99.90;;;;;;5114288;28;20447;-83
2022/01/05 01:22:09;;;;;;;0.30;0.30;;;4.00;99.90;;;;;;5114203;28;20435;-83
2022/01/05 01:24:35;;;;;;;0.77;0.77;;;4.10;99.90;;;;;;5114167;28;20447;-83
2022/01/05 01:27:02;;;;;;;0.30;0.27;;;4.10;99.90;;;;;;5114164;28;20446;-82
2022/01/05 01:29:29;;;;;;;0.30;0.30;;;4.10;99.90;;;;;;5114177;28;20454;-84
2022/01/05 01:31:56;;;;;;;0.30;0.20;;;4.00;99.90;;;;;;5114067;28;20485;-84
2022/01/05 01:34:24;;;;;;;0.30;0.30;;;4.10;99.90;;;;;;5114162;28;20443;-84
2022/01/05 01:36:50;;;;;;;0.30;0.30;;;4.10;99.90;;;;;;5114156;28;20490;-84
2022/01/05 01:39:17;;;;;;;0.30;0.20;;;4.10;99.90;;;;;;5113998;28;20439;-83
2022/01/05 01:41:44;;;;;;;0.30;0.30;;;4.10;99.90;;;;;;5113981;28;20455;-84
2022/01/05 01:44:11;;;;;;;0.30;0.20;;;4.10;99.90;;;;;;5113872;28;20470;-84
2022/01/05 01:46:37;;;;;;;0.30;0.20;;;4.10;99.90;;;;;;5114027;28;20443;-85
2022/01/05 01:49:04;;;;;;;0.30;0.20;;;4.20;99.90;;;;;;5113989;28;20447;-85
2022/01/05 01:51:32;;;;;;;0.30;0.20;;;4.20;99.90;;;;;;5113867;28;20451;-84
2022/01/05 01:53:59;;;;;;;0.30;0.20;;;4.20;99.90;;;;;;5113633;28;20981;-85
2022/01/05 01:56:27;;;;;;;0.30;0.30;;;4.10;99.90;;;;;;5113889;28;20439;-85
2022/01/05 01:58:53;;;;;;;0.40;0.40;;;4.20;99.90;;;;;;5115790;28;20449;-84
2022/01/05 02:01:20;;;;;;;0.30;0.30;;;4.20;99.90;;;;;;5118204;27;20443;-83
2022/01/05 02:03:47;;;;;;;0.30;0.30;;;4.20;99.90;;;;;;5117990;28;20458;-83
2022/01/05 02:06:14;;;;;;;0.30;0.30;;;4.30;99.90;;;;;;5117989;28;20450;-84
2022/01/05 02:08:42;;;;;;;0.30;0.20;;;4.30;99.90;;;;;;5117707;28;20442;-84
2022/01/05 02:11:10;;;;;;;0.30;0.30;;;4.30;99.90;;;;;;5117900;28;20466;-83
2022/01/05 02:13:37;;;;;;;0.30;0.30;;;4.40;99.90;;;;;;5117764;28;20490;-83
2022/01/05 02:16:05;;;;;;;0.57;0.57;;;4.40;99.90;;;;;;5117602;27;20482;-84
2022/01/05 02:21:17;;;;;;;0.30;0.30;;;4.40;99.90;;;;;;5117859;28;20889;-84
2022/01/05 02:23:44;;;;;;;0.30;0.20;;;4.40;99.90;;;;;;5117633;28;20466;-84
2022/01/05 02:26:12;;;;;;;0.30;0.20;;;4.40;99.90;;;;;;5117641;28;20446;-84
2022/01/05 02:28:41;;;;;;;0.30;0.30;;;4.50;99.90;;;;;;5117337;28;20496;-84
2022/01/05 02:31:08;;;;;;;0.30;0.20;;;4.40;99.90;;;;;;5117707;28;20482;-84
2022/01/05 02:33:35;;;;;;;0.40;0.40;;;4.40;99.90;;;;;;5117422;28;20510;-84
2022/01/05 02:36:03;;;;;;;0.30;0.20;;;4.40;99.90;;;;;;5117471;28;20809;-85
2022/01/05 02:38:31;;;;;;;0.30;0.20;;;4.40;99.90;;;;;;5117596;28;20873;-85
2022/01/05 02:41:05;;;;;;;0.30;0.20;;;4.50;99.90;;;;;;5117658;28;20423;-85
2022/01/05 02:43:32;;;;;;;0.30;0.20;;;4.40;99.90;;;;;;5117478;27;20468;-85
2022/01/05 02:45:59;;;;;;;0.30;0.30;;;4.40;99.90;;;;;;5117115;28;20439;-85
2022/01/05 02:48:26;;;;;;;0.30;0.20;;;4.50;99.90;;;;;;5117336;27;20529;-83
2022/01/05 02:50:56;;;;;;;0.30;0.20;;;4.50;99.90;;;;;;5117155;28;20451;-82
2022/01/05 02:53:23;;;;;;;0.30;0.20;;;4.50;99.90;;;;;;5116771;28;21024;-83
2022/01/05 02:55:51;;;;;;;0.30;0.20;;;4.50;99.90;;;;;;5116721;27;20942;-83
2022/01/05 02:58:18;;;;;;;0.30;0.30;;;4.50;99.90;;;;;;5117108;28;20454;-83
2022/01/05 03:00:45;;;;;;;0.30;0.20;;;4.50;99.90;;;;;;5116675;28;20451;-84
2022/01/05 03:03:12;;;;;;;0.30;0.20;;;4.50;99.90;;;;;;5116859;28;20829;-84
2022/01/05 03:05:39;;;;;;;0.30;0.20;;;4.50;99.90;;;;;;5116932;28;20450;-84
2022/01/05 03:08:06;;;;;;;0.40;0.40;;;4.40;99.90;;;;;;5116475;28;20443;-84
2022/01/05 03:10:32;;;;;;;0.30;0.30;;;4.40;99.90;;;;;;5116784;28;20439;-84
2022/01/05 03:13:01;;;;;;;0.30;0.30;;;4.40;99.90;;;;;;5116647;28;20494;-84
2022/01/05 03:15:28;;;;;;;0.30;0.20;;;4.40;99.90;;;;;;5116567;28;20849;-84
2022/01/05 03:17:55;;;;;;;0.30;0.30;;;4.40;99.90;;;;;;5116598;28;20535;-83
2022/01/05 03:20:22;;;;;;;0.30;0.20;;;4.40;99.90;;;;;;5116611;28;20447;-83
2022/01/05 03:22:50;;;;;;;0.30;0.20;;;4.40;99.90;;;;;;5116492;28;20471;-84
2022/01/05 03:25:18;;;;;;;0.30;0.20;;;4.40;99.90;;;;;;5116493;28;20451;-84
2022/01/05 03:27:46;;;;;;;0.40;0.30;;;4.40;99.90;;;;;;5116427;28;20454;-84
2022/01/05 03:30:17;;;;;;;0.30;0.20;;;4.50;99.90;;;;;;5116193;27;20442;-84
2022/01/05 03:33:03;;;;;;;0.30;0.30;;;4.50;99.90;;;;;;5115969;28;21013;-85
2022/01/05 03:35:33;;;;;;;0.30;0.20;;;4.50;99.90;;;;;;5116516;28;20957;-84
2022/01/05 03:38:01;;;;;;;0.30;0.20;;;4.50;99.90;;;;;;5126565;28;20860;-84
2022/01/05 03:40:30;;;;;;;0.30;0.20;;;4.50;99.90;;;;;;5116033;28;20436;-84
2022/01/05 03:42:57;;;;;;;0.30;0.20;;;4.40;99.90;;;;;;5115922;28;20970;-85
2022/01/05 03:45:25;;;;;;;0.30;0.20;;;4.40;99.90;;;;;;5116023;28;20446;-85
2022/01/05 03:47:52;;;;;;;0.30;0.20;;;4.40;99.90;;;;;;5116171;28;20454;-85
2022/01/05 03:50:19;;;;;;;0.30;0.20;;;4.40;99.90;;;;;;5116172;28;20855;-85
2022/01/05 03:52:45;;;;;;;0.30;0.30;;;4.40;99.90;;;;;;5115825;28;20475;-85
2022/01/05 03:55:12;;;;;;;0.40;0.40;;;4.40;99.90;;;;;;5116144;28;20469;-85
2022/01/05 03:57:39;;;;;;;0.30;0.20;;;4.30;99.90;;;;;;5115698;28;20428;-85
2022/01/05 04:00:07;;;;;;;0.30;0.20;;;4.40;99.90;;;;;;5116464;28;20458;-85
2022/01/05 04:02:35;;;;;;;0.30;0.20;;;4.40;99.90;;;;;;5116598;28;20835;-85
2022/01/05 04:05:02;;;;;;;0.30;0.20;;;4.40;99.90;;;;;;5115889;28;20446;-84
2022/01/05 04:07:29;;;;;;;0.30;0.20;;;4.40;99.90;;;;;;5115747;28;20480;-84
2022/01/05 04:09:55;;;;;;;0.30;0.20;;;4.40;99.90;;;;;;5115732;28;20451;-84
2022/01/05 04:12:22;;;;;;;0.30;0.30;;;4.40;99.90;;;;;;5115544;28;20463;-84
2022/01/05 04:14:49;;;;;;;0.30;0.30;;;4.40;99.90;;;;;;5115560;28;20454;-83
2022/01/05 04:17:16;;;;;;;0.30;0.20;;;4.40;99.90;;;;;;5115121;28;20483;-83
2022/01/05 04:19:44;;;;;;;0.30;0.20;;;4.40;99.90;;;;;;5115444;28;20451;-84
2022/01/05 04:22:10;;;;;;;0.30;0.20;;;4.40;99.90;;;;;;5114809;28;20836;-83
2022/01/05 04:24:37;;;;;;;0.30;0.20;;;4.40;99.90;;;;;;5115511;28;20439;-84
2022/01/05 04:27:04;;;;;;;0.30;0.30;;;4.30;99.90;;;;;;5115359;28;20447;-85
2022/01/05 04:29:31;;;;;;;0.30;0.30;;;4.30;99.90;;;;;;5115401;28;20451;-84
2022/01/05 04:31:58;;;;;;;0.30;0.20;;;4.30;99.90;;;;;;5115353;28;20454;-85
2022/01/05 04:34:25;;;;;;;0.30;0.30;;;4.30;99.90;;;;;;5115202;27;20463;-85
2022/01/05 04:36:53;;;;;;;0.30;0.30;;;4.30;99.90;;;;;;5115261;28;20869;-84
2022/01/05 04:39:19;;;;;;;0.30;0.20;;;4.30;99.90;;;;;;5115224;28;20470;-84
2022/01/05 04:41:46;;;;;;;0.30;0.20;;;4.30;99.90;;;;;;5114966;28;20819;-84
2022/01/05 04:44:13;;;;;;;0.30;0.20;;;4.30;99.90;;;;;;5114863;28;20466;-84
2022/01/05 04:46:40;;;;;;;0.30;0.20;;;4.20;99.90;;;;;;5115167;28;20534;-84
2022/01/05 04:49:06;;;;;;;0.30;0.20;;;4.20;99.90;;;;;;5114974;28;20451;-85
2022/01/05 04:51:33;;;;;;;0.30;0.20;;;4.20;99.90;;;;;;5114608;28;20820;-85
2022/01/05 04:54:01;;;;;;;0.30;0.20;;;4.20;99.90;;;;;;5114621;28;20479;-84
2022/01/05 04:56:28;;;;;;;0.30;0.20;;;4.10;99.90;;;;;;5114720;28;20462;-85
2022/01/05 04:58:56;;;;;;;0.30;0.20;;;4.10;99.90;;;;;;5114376;28;20934;-84
2022/01/05 05:01:23;;;;;;;0.30;0.20;;;4.10;99.90;;;;;;5114734;27;20454;-84
2022/01/05 05:03:50;;;;;;;0.30;0.20;;;4.10;99.90;;;;;;5114367;27;20985;-84
2022/01/05 05:06:17;;;;;;;0.30;0.30;;;4.10;99.90;;;;;;5114699;28;20450;-84
2022/01/05 05:08:43;;;;;;;0.30;0.20;;;4.10;99.90;;;;;;5114714;28;20446;-84
2022/01/05 05:11:11;;;;;;;0.30;0.20;;;4.00;99.90;;;;;;5114693;28;20450;-85
2022/01/05 05:13:38;;;;;;;0.30;0.20;;;4.00;99.90;;;;;;5114408;28;20505;-84
2022/01/05 05:16:05;;;;;;;0.30;0.20;;;4.00;99.90;;;;;;5114579;28;20478;-88
2022/01/05 05:18:32;;;;;;;0.30;0.20;;;3.90;99.90;;;;;;5115007;28;20454;-88
2022/01/05 05:20:59;;;;;;;0.30;0.20;;;3.90;99.90;;;;;;5114944;28;20442;-88
2022/01/05 05:23:26;;;;;;;0.30;0.20;;;3.80;99.90;;;;;;5114832;28;20973;-88
2022/01/05 05:25:53;;;;;;;0.30;0.27;;;3.80;99.90;;;;;;5114953;28;20438;-85
2022/01/05 05:28:21;;;;;;;0.30;0.20;;;3.80;99.90;;;;;;5114867;28;20443;-87
2022/01/05 05:30:48;;;;;;;0.30;0.30;;;3.90;99.90;;;;;;5114468;28;20438;-85
2022/01/05 05:33:14;;;;;;;0.30;0.30;;;3.90;99.90;;;;;;5113188;28;20508;-84
2022/01/05 05:35:42;;;;;;;0.40;0.40;;;3.90;99.90;;;;;;5114129;28;20454;-83
2022/01/05 05:38:11;;;;;;;0.30;0.20;;;3.90;99.90;;;;;;5113748;28;20946;-83
2022/01/05 05:40:38;;;;;;;0.30;0.20;;;3.90;99.90;;;;;;5113981;28;20447;-83
2022/01/05 05:43:05;;;;;;;0.30;0.30;;;3.90;99.90;;;;;;5113996;28;20466;-83
2022/01/05 05:45:33;;;;;;;0.30;0.30;;;3.90;99.90;;;;;;5113980;28;20458;-83
2022/01/05 05:48:00;;;;;;;0.30;0.20;;;3.90;99.90;;;;;;5113944;28;20423;-83
2022/01/05 05:50:27;;;;;;;0.30;0.30;;;3.90;99.90;;;;;;5113900;28;20454;-82
2022/01/05 05:52:54;;;;;;;0.30;0.20;;;3.90;99.90;;;;;;5113415;28;20467;-83
2022/01/05 05:55:20;;;;;;;0.30;0.30;;;3.60;99.90;;;;;;5113569;28;20840;-83
2022/01/05 05:57:47;;;;;;;0.30;0.30;;;3.40;99.90;;;;;;5113545;28;20447;-84
2022/01/05 06:00:15;;;;;;;0.30;0.20;;;3.10;99.90;;;;;;5113821;28;20557;-84
2022/01/05 06:02:43;;;;;;;0.30;0.20;;;2.90;99.90;;;;;;5113739;28;20470;-83
2022/01/05 06:05:10;;;;;;;0.30;0.30;;;2.70;99.90;;;;;;5113851;28;20810;-83
2022/01/05 06:07:37;;;;;;;0.40;0.30;;;2.60;99.90;;;;;;5113776;28;20439;-83
2022/01/05 06:10:04;;;;;;;0.30;0.20;;;2.50;99.90;;;;;;5113428;28;20953;-83
2022/01/05 06:12:31;;;;;;;0.30;0.20;;;2.40;99.90;;;;;;5113435;28;20451;-83
2022/01/05 06:14:58;;;;;;;0.30;0.30;;;2.40;99.90;;;;;;5113364;28;20486;-86
2022/01/05 06:17:26;;;;;;;0.30;0.20;;;2.40;99.90;;;;;;5109471;28;20481;-83
2022/01/05 06:19:54;;;;;;;0.30;0.30;;;2.30;99.90;;;;;;5113341;28;20938;-83
2022/01/05 06:22:21;;;;;;;0.30;0.20;;;2.30;99.90;;;;;;5113559;28;20463;-83
2022/01/05 06:24:47;;;;;;;0.30;0.20;;;2.30;99.90;;;;;;5113602;28;20443;-82
2022/01/05 06:27:14;;;;;;;0.30;0.27;;;2.30;99.90;;;;;;5113537;28;20450;-82
2022/01/05 06:29:41;;;;;;;0.40;0.40;;;2.30;99.90;;;;;;5113515;28;20442;-82
2022/01/05 06:32:09;;;;;;;0.30;0.30;;;2.30;99.90;;;;;;5113433;28;20443;-83
2022/01/05 06:34:35;;;;;;;0.30;0.30;;;2.30;99.90;;;;;;5114637;28;20900;-82
2022/01/05 06:37:04;;;;;;;0.30;0.30;;;2.30;99.90;;;;;;5114147;28;20458;-82
2022/01/05 06:39:31;;;;;;;0.30;0.20;;;2.30;99.90;;;;;;5115705;28;20474;-82
2022/01/05 06:41:58;;;;;;;0.30;0.30;;;2.30;99.90;;;;;;5113399;28;20447;-82
2022/01/05 06:44:24;;;;;;;0.30;0.30;;;2.30;99.90;;;;;;5114317;28;20439;-83
2022/01/05 06:46:51;;;;;;;0.30;0.20;;;2.40;99.90;;;;;;5117237;28;20446;-83
2022/01/05 06:49:20;;;;;;;0.30;0.20;;;2.40;99.90;;;;;;5117763;28;20443;-83
2022/01/05 06:51:47;;;;;;;0.30;0.20;;;2.50;99.90;;;;;;5117125;28;20451;-82
2022/01/05 06:54:15;;;;;;;0.30;0.30;;;2.50;99.90;;;;;;5116692;28;20490;-82
2022/01/05 06:56:41;;;;;;;0.30;0.30;;;2.50;99.90;;;;;;5117089;28;20818;-83
2022/01/05 06:59:08;;;;;;;0.30;0.20;;;2.50;99.90;;;;;;5117022;28;20458;-83
2022/01/05 07:01:35;;;;;;;0.30;0.30;;;2.40;99.90;;;;;;5116960;28;20450;-82
2022/01/05 07:04:02;;;;;;;0.30;0.20;;;2.40;99.90;;;;;;5116825;28;20465;-82
2022/01/05 07:06:29;;;;;;;0.30;0.30;;;2.40;99.90;;;;;;5116529;28;20938;-83
2022/01/05 07:08:55;;;;;;;0.30;0.27;;;2.40;99.90;;;;;;5116837;28;20439;-83
2022/01/05 07:11:23;;;;;;;0.30;0.20;;;2.40;99.90;;;;;;5116482;28;20946;-83
2022/01/05 07:13:50;;;;;;;0.30;0.20;;;2.40;99.90;;;;;;5116578;28;20486;-83
2022/01/05 07:16:17;;;;;;;0.30;0.20;;;2.40;99.90;;;;;;5116243;28;20471;-83
2022/01/05 07:18:44;;;;;;;0.30;0.30;;;2.50;99.90;;;;;;5116676;28;20523;-84
2022/01/05 07:21:11;;;;;;;0.30;0.30;;;2.50;99.90;;;;;;5116553;28;20446;-83
2022/01/05 07:23:37;;;;;;;0.30;0.30;;;2.50;99.90;;;;;;5116490;28;20471;-83
2022/01/05 07:26:04;;;;;;;0.30;0.20;;;2.60;99.90;;;;;;5116527;28;20459;-83
2022/01/05 07:28:32;;;;;;;0.30;0.20;;;2.60;99.90;;;;;;5116569;28;20442;-84
2022/01/05 07:30:59;;;;;;;0.30;0.30;;;2.60;99.90;;;;;;5116395;28;20450;-83
2022/01/05 07:33:26;;;;;;;0.30;0.20;;;2.60;99.90;;;;;;5116350;28;20474;-83
2022/01/05 07:35:53;;;;;;;0.30;0.20;;;2.60;99.90;;;;;;5116411;28;20451;-83
2022/01/05 07:38:20;;;;;;;0.30;0.20;;;2.50;99.90;;;;;;5116288;28;20478;-83
2022/01/05 07:40:47;;;;;;;0.30;0.30;;;2.40;99.90;;;;;;5116190;28;20447;-83
2022/01/05 07:43:14;;;;;;;0.30;0.30;;;2.40;99.90;;;;;;5116153;28;20462;-83
2022/01/05 07:45:42;;;;;;;0.30;0.20;;;2.40;99.90;;;;;;5115862;28;20925;-83
2022/01/05 07:48:08;;;;;;;0.30;0.20;;;2.40;99.90;;;;;;5116257;28;20450;-82
2022/01/05 07:50:35;;;;;;;0.30;0.20;;;2.30;99.90;;;;;;5115643;28;20952;-82
2022/01/05 07:53:04;;;;;;;0.30;0.30;;;2.40;99.90;;;;;;5115885;28;20467;-82
2022/01/05 07:55:31;;;;;;;0.30;0.30;;;2.30;99.90;;;;;;5115362;28;20482;-82
2022/01/05 07:57:58;;;;;;;1.83;1.80;;;2.30;99.90;;;;;;5114447;28;20946;-82
2022/01/05 08:00:25;;;;;;;0.30;0.30;;;2.30;99.90;;;;;;5116355;28;20471;-82
2022/01/05 08:02:53;;;;;;;0.40;0.40;;;2.30;99.90;;;;;;5115576;28;20466;-82
2022/01/05 08:05:20;;;;;;;0.30;0.20;;;2.20;99.90;;;;;;5115707;28;20435;-82
2022/01/05 08:07:46;;;;;;;0.30;0.30;;;2.20;99.90;;;;;;5115344;28;20833;-83
2022/01/05 08:10:13;;;;;;;0.30;0.30;;;2.20;99.90;;;;;;5115618;28;20447;-83
2022/01/05 08:12:41;;;;;;;0.30;0.20;;;2.20;99.90;;;;;;5115628;28;20466;-83
2022/01/05 08:15:09;;;;;;;0.30;0.30;;;2.10;99.90;;;;;;5115452;28;20489;-83
2022/01/05 08:17:36;;;;;;;0.30;0.20;;;2.00;99.90;;;;;;5115044;28;20479;-83
2022/01/05 08:20:06;;;;;;;0.30;0.30;;;2.10;99.90;;;;;;5115407;28;20440;-83
2022/01/05 08:22:33;;;;;;;0.30;0.30;;;2.10;99.90;;;;;;5115366;28;20464;-82
2022/01/05 08:24:59;;;;;;;0.30;0.30;;;2.20;99.90;;;;;;5115265;28;20424;-82
2022/01/05 08:27:26;;;;;;;0.30;0.30;;;2.20;99.90;;;;;;5114980;27;20435;-81
2022/01/05 08:29:53;;;;;;;0.30;0.30;;;2.20;99.90;;;;;;5115288;28;20446;-83
2022/01/05 08:32:20;;;;;;;0.30;0.30;;;2.20;99.90;;;;;;5114797;28;20467;-84
2022/01/05 08:34:46;;;;;;;0.30;0.30;;;2.10;99.90;;;;;;5115139;28;20487;-84
2022/01/05 08:37:15;;;;;;;0.30;0.23;;;2.10;99.90;;;;;;5114933;28;20949;-83
2022/01/05 08:39:43;;;;;;;0.30;0.30;;;2.00;99.90;;;;;;5115055;28;20451;-84
2022/01/05 08:42:10;;;;;;;0.30;0.20;;;1.90;99.90;;;;;;5115077;28;20458;-84
2022/01/05 08:44:36;;;;;;;0.30;0.30;;;1.90;99.90;;;;;;5114981;28;20443;-84
2022/01/05 08:47:05;;;;;;;0.30;0.30;;;1.90;99.90;;;;;;5115059;28;20442;-84
2022/01/05 08:49:31;;;;;;;0.47;0.47;;;1.90;99.90;;;;;;5114801;28;20451;-84
2022/01/05 08:51:58;;;;;;;0.30;0.30;;;1.80;99.90;;;;;;5114743;28;20942;-84
2022/01/05 08:54:26;;;;;;;0.30;0.20;;;1.90;99.90;;;;;;5116019;28;20481;-84
2022/01/05 08:56:54;;;;;;;0.30;0.20;;;1.90;99.90;;;;;;5117899;28;20478;-84
2022/01/05 08:59:21;;;;;;;0.30;0.30;;;1.90;99.90;;;;;;5115380;28;20448;-85
2022/01/05 09:01:48;;;;;;;0.30;0.30;;;1.80;99.90;;;;;;5114689;28;20450;-85
2022/01/05 09:04:14;;;;;;;0.30;0.20;;;1.80;99.90;;;;;;5114504;28;20463;-85
2022/01/05 09:06:42;;;;;;;0.30;0.20;;;1.80;99.90;;;;;;5114325;28;20922;-85
2022/01/05 09:09:08;;;;;;;0.30;0.20;;;1.70;99.90;;;;;;5114409;28;20439;-84
2022/01/05 09:11:37;;;;;;;0.30;0.30;;;1.70;99.90;;;;;;5114198;28;20447;-84
2022/01/05 09:14:04;;;;;;;0.30;0.20;;;1.70;99.90;;;;;;5114338;28;20463;-84
2022/01/05 09:16:31;;;;;;;0.30;0.30;;;1.70;99.90;;;;;;5114014;28;20534;-84
2022/01/05 09:18:57;;;;;;;0.30;0.30;;;1.80;99.90;;;;;;5114345;27;20429;-84
2022/01/05 09:21:24;;;;;;;0.30;0.30;;;1.90;99.90;;;;;;5113955;28;20949;-84
2022/01/05 09:23:51;;;;;;;0.30;0.30;;;2.20;99.90;;;;;;5114296;28;20471;-84
2022/01/05 09:26:18;;;;;;;0.30;0.30;;;2.30;99.90;;;;;;5113917;28;20451;-84
2022/01/05 09:28:46;;;;;;;0.30;0.30;;;2.50;99.90;;;;;;5114200;28;20451;-84
2022/01/05 09:31:13;;;;;;;0.30;0.20;;;2.60;99.90;;;;;;5114124;28;20821;-84
2022/01/05 09:33:40;;;;;;;0.30;0.30;;;2.60;99.90;;;;;;5113996;28;20883;-84
2022/01/05 09:36:13;;;;;;;0.30;0.30;;;2.60;99.90;;;;;;5113715;28;20470;-84
2022/01/05 09:44:09;;;;;;;0.30;0.30;;;2.50;99.90;;;;;;5113414;28;20445;-83
2022/01/05 09:46:52;;;;;;;0.30;0.30;;;2.60;99.90;;;;;;5114812;28;20428;-85
2022/01/05 09:49:24;;;;;;;0.30;0.20;;;2.50;99.90;;;;;;5114195;28;20439;-86
2022/01/05 09:51:55;;;;;;;0.30;0.20;;;2.60;99.90;;;;;;5113964;28;20460;-85
2022/01/05 09:54:23;;;;;;;0.30;0.20;;;2.90;99.90;;;;;;5114465;28;20493;-85
2022/01/05 09:56:50;;;;;;;0.30;0.20;;;3.90;99.90;;;;;;5114186;28;20898;-85
2022/01/05 09:59:19;;;;;;;0.30;0.20;;;4.40;99.90;;;;;;5113889;28;20428;-84
2022/01/05 10:01:45;;;;;;;0.30;0.20;;;4.40;99.90;;;;;;5113878;28;20431;-82
2022/01/05 10:04:14;;;;;;;0.30;0.20;;;4.40;99.90;;;;;;5113400;28;20981;-82
2022/01/05 10:06:42;;;;;;;0.30;0.30;;;4.20;99.90;;;;;;5113556;28;20875;-81
2022/01/05 10:09:09;;;;;;;0.30;0.30;;;3.90;99.90;;;;;;5114354;28;20419;-83
2022/01/05 10:11:36;;;;;;;0.30;0.20;;;3.50;99.90;;;;;;5115401;28;20798;-82
2022/01/05 10:14:03;;;;;;;0.30;0.20;;;3.30;99.90;;;;;;5113822;28;20474;-82
2022/01/05 10:16:31;;;;;;;0.30;0.30;;;3.20;99.90;;;;;;5113206;28;20487;-80
2022/01/05 10:18:58;;;;;;;0.30;0.30;;;3.10;99.90;;;;;;5115763;28;20447;-82
2022/01/05 10:21:33;;;;;;;0.30;0.30;;;3.00;99.90;;;;;;5117817;27;20434;-82
2022/01/05 10:23:59;;;;;;;0.30;0.20;;;2.90;99.90;;;;;;5117692;28;20473;-82
2022/01/05 10:26:29;;;;;;;5.97;0.83;;;2.90;99.90;;;;;;5117687;28;20829;-81
2022/01/05 10:28:59;;;;;;;0.30;0.23;;;2.90;99.90;;;;;;5117715;27;20429;-82
2022/01/05 10:31:28;;;;;;;0.30;0.30;;;2.90;99.90;;;;;;5117615;28;20435;-82
2022/01/05 10:33:57;;;;;;;0.30;0.20;;;3.00;99.90;;;;;;5117631;28;20463;-78
2022/01/05 10:36:24;;;;;;;0.30;0.20;;;3.20;99.90;;;;;;5118348;27;20474;-84
2022/01/05 10:38:55;;;;;;;0.30;0.20;;;3.20;99.90;;;;;;5117442;28;20424;-83
2022/01/05 10:41:24;;;;;;;0.30;0.30;;;3.30;99.90;;;;;;5117461;28;20430;-84
2022/01/05 10:44:15;;;;;;;0.30;0.20;;;3.30;99.90;;;;;;5117313;28;20459;-83
2022/01/05 10:46:44;;;;;;;0.30;0.20;;;3.30;99.90;;;;;;5117076;28;20891;-83
2022/01/05 10:49:23;;;;;;;0.30;0.30;;;3.20;99.90;;;;;;5117268;28;20454;-84
2022/01/05 10:51:50;;;;;;;0.30;0.20;;;3.20;99.90;;;;;;5117211;27;20454;-83
2022/01/05 10:54:19;;;;;;;0.30;0.20;;;3.10;99.90;;;;;;5116842;27;20978;-83
2022/01/05 10:56:46;;;;;;;0.30;0.20;;;3.20;99.90;;;;;;5116831;28;20431;-83
2022/01/05 10:59:15;;;;;;;0.30;0.30;;;3.10;99.90;;;;;;5117112;27;20435;-82
2022/01/05 11:01:43;;;;;;;0.70;0.60;;;3.20;99.90;;;;;;5117163;28;20430;-82
2022/01/05 11:04:19;;;;;;;0.30;0.30;;;3.20;99.90;;;;;;5120616;28;20474;-83
2022/01/05 11:07:02;;;;;;;0.30;0.23;;;3.10;99.90;;;;;;5121083;28;20898;-82
2022/01/05 11:09:30;;;;;;;0.30;0.20;;;3.10;99.90;;;;;;5117023;28;20815;-82
2022/01/05 11:11:58;;;;;;;0.30;0.20;;;3.10;99.90;;;;;;5121075;28;20435;-83
2022/01/05 11:14:30;;;;;;;0.30;0.30;;;3.10;99.90;;;;;;5120274;27;20946;-83
2022/01/05 11:17:01;;;;;;;0.30;0.30;;;3.10;99.90;;;;;;5119761;28;20870;-83
2022/01/05 11:19:31;;;;;;;0.30;0.20;;;3.20;99.90;;;;;;5118240;28;20899;-83
2022/01/05 11:22:06;;;;;;;0.30;0.30;;;3.20;99.90;;;;;;5118875;28;20431;-84
2022/01/05 11:24:36;;;;;;;0.30;0.20;;;3.20;99.90;;;;;;5119884;28;20522;-83
2022/01/05 11:27:05;;;;;;;0.30;0.30;;;3.30;99.90;;;;;;5118157;28;20530;-83
2022/01/05 11:29:33;;;;;;;0.30;0.30;;;3.40;99.90;;;;;;5118040;27;20439;-83
2022/01/05 11:32:01;;;;;;;0.30;0.20;;;3.50;99.90;;;;;;5115567;28;20490;-83
2022/01/05 11:34:31;;;;;;;0.30;0.20;;;3.40;99.90;;;;;;5117121;28;20435;-83
2022/01/05 11:37:01;;;;;;;0.30;0.20;;;3.40;99.90;;;;;;5116996;28;20787;-83
2022/01/05 11:39:30;;;;;;;0.30;0.30;;;3.30;99.90;;;;;;5117127;28;20431;-83
2022/01/05 11:42:00;;;;;;;0.30;0.30;;;3.30;99.90;;;;;;5116506;27;20427;-83
2022/01/05 11:44:29;;;;;;;0.30;0.30;;;3.30;99.90;;;;;;5116072;28;20431;-83
2022/01/05 11:46:56;;;;;;;0.30;0.30;;;3.30;99.90;;;;;;5116244;28;20443;-84
2022/01/05 11:49:27;;;;;;;0.30;0.20;;;3.40;99.90;;;;;;5116171;28;20427;-83
2022/01/05 11:51:58;;;;;;;0.30;0.30;;;3.50;99.90;;;;;;5116110;28;20434;-84
2022/01/05 11:54:27;;;;;;;0.30;0.20;;;3.40;99.90;;;;;;5116058;28;20532;-84
2022/01/05 11:56:57;;;;;;;0.30;0.20;;;3.30;99.90;;;;;;5115995;28;20475;-84
2022/01/05 11:59:33;;;;;;;0.30;0.20;;;3.30;99.90;;;;;;5116013;28;20497;-84
2022/01/05 12:02:08;;;;;;;0.30;0.30;;;3.30;99.90;;;;;;5116692;28;20499;-77
2022/01/05 12:05:00;;;;;;;0.30;0.30;;;3.20;99.90;;;;;;5115868;28;20430;-82
2022/01/05 12:07:40;;;;;;;0.30;0.30;;;3.20;99.90;;;;;;5115828;28;20427;-85
2022/01/05 12:10:16;;;;;;;0.30;0.30;;;3.20;99.90;;;;;;5115423;28;20918;-84
2022/01/05 12:12:59;;;;;;;0.30;0.30;;;3.20;99.90;;;;;;5115578;28;20565;-84
2022/01/05 12:15:43;;;;;;;0.30;0.20;;;3.20;99.90;;;;;;5114147;28;20470;-84
2022/01/05 12:18:10;;;;;;;0.30;0.30;;;3.30;99.90;;;;;;5115576;28;20572;-84
2022/01/05 12:20:39;;;;;;;0.30;0.30;;;3.30;99.90;;;;;;5115531;27;20835;-84
2022/01/05 12:23:20;;;;;;;0.30;0.30;;;3.30;99.90;;;;;;5115409;28;20486;-84
2022/01/05 12:26:13;;;;;;;0.30;0.20;;;3.20;99.90;;;;;;5115451;28;20431;-84
2022/01/05 12:28:42;;;;;;;0.30;0.20;;;3.20;99.90;;;;;;5115342;28;20435;-84
2022/01/05 12:31:09;;;;;;;0.30;0.30;;;3.00;99.90;;;;;;5115354;28;20431;-84
2022/01/05 12:33:42;;;;;;;0.30;0.20;;;2.90;99.90;;;;;;5115196;28;20471;-84
2022/01/05 12:36:09;;;;;;;0.30;0.20;;;2.80;99.90;;;;;;5115250;28;20872;-84
2022/01/05 12:38:54;;;;;;;0.30;0.20;;;2.80;99.90;;;;;;5115212;28;20837;-84
2022/01/05 12:41:26;;;;;;;0.30;0.20;;;2.70;99.90;;;;;;5115106;28;20428;-84
2022/01/05 12:43:53;;;;;;;0.30;0.30;;;2.70;99.90;;;;;;5114411;28;20446;-84
2022/01/05 12:46:34;;;;;;;0.30;0.30;;;2.60;99.90;;;;;;5115062;28;20432;-85
2022/01/05 12:49:09;;;;;;;0.30;0.20;;;2.60;99.90;;;;;;5115004;28;20408;-83
2022/01/05 12:51:52;;;;;;;0.30;0.30;;;2.50;99.90;;;;;;5115603;28;20434;-83
2022/01/05 12:54:22;;;;;;;0.30;0.23;;;2.40;99.90;;;;;;5114512;28;21004;-83
2022/01/05 12:56:52;;;;;;;0.30;0.20;;;2.40;99.90;;;;;;5114759;28;20462;-83
2022/01/05 12:59:22;;;;;;;0.30;0.20;;;2.40;99.90;;;;;;5114448;28;20427;-83
2022/01/05 13:01:51;;;;;;;0.30;0.20;;;2.30;99.90;;;;;;5115612;28;20451;-78
2022/01/05 13:04:19;;;;;;;0.30;0.30;;;2.30;99.90;;;;;;5114621;28;20477;-83
2022/01/05 13:06:46;;;;;;;0.30;0.30;;;2.20;99.90;;;;;;5114325;28;20394;-83
2022/01/05 13:09:23;;;;;;;4.37;1.17;;;2.20;99.90;;;;;;5114603;28;20437;-84
2022/01/05 13:11:54;;;;;;;0.70;0.50;;;2.20;99.90;;;;;;5114475;28;20435;-84